createdAt,value
2019-02-12T00:02:04.551Z,4.63
2019-02-12T00:04:38.726Z,4.03
2019-02-12T00:07:13.331Z,4.60
2019-02-12T00:09:47.213Z,5.10
2019-02-12T00:12:22.153Z,4.80
2019-02-12T00:14:56.422Z,4.30
2019-02-12T00:17:30.300Z,4.87
2019-02-12T00:20:07.384Z,5.17
2019-02-12T00:22:41.426Z,5.03
2019-02-12T00:25:17.849Z,5.50
2019-02-12T00:27:52.606Z,5.50
2019-02-12T00:30:27.046Z,5.63
2019-02-12T00:33:00.562Z,4.80
2019-02-12T00:35:36.252Z,5.40
2019-02-12T00:38:10.286Z,5.57
2019-02-12T00:40:51.782Z,5.17
2019-02-12T00:43:26.095Z,5.47
2019-02-12T00:45:59.734Z,5.50
2019-02-12T00:48:33.739Z,5.03
2019-02-12T00:51:08.503Z,5.93
2019-02-12T00:53:43.959Z,5.10
2019-02-12T00:56:19.806Z,6.27
2019-02-12T00:58:54.701Z,6.00
2019-02-12T01:01:28.581Z,5.53
2019-02-12T01:04:02.103Z,6.33
2019-02-12T01:06:36.125Z,6.03
2019-02-12T01:09:09.715Z,6.13
2019-02-12T01:11:46.394Z,5.63
2019-02-12T01:14:20.383Z,6.13
2019-02-12T01:16:55.787Z,4.90
2019-02-12T01:19:28.746Z,6.03
2019-02-12T01:22:03.508Z,5.80
2019-02-12T01:24:37.613Z,6.90
2019-02-12T01:27:11.463Z,6.20
2019-02-12T01:29:46.200Z,5.73
2019-02-12T01:32:19.067Z,6.27
2019-02-12T01:34:52.850Z,6.30
2019-02-12T01:37:27.211Z,6.67
2019-02-12T01:40:00.785Z,7.43
2019-02-12T01:42:34.577Z,6.90
2019-02-12T01:45:09.553Z,7.47
2019-02-12T01:47:42.857Z,7.10
2019-02-12T01:50:16.731Z,6.30
2019-02-12T01:52:50.273Z,7.27
2019-02-12T01:55:22.755Z,7.13
2019-02-12T01:57:55.093Z,6.80
2019-02-12T02:00:28.314Z,9.13
2019-02-12T02:03:01.308Z,8.20
2019-02-12T02:05:33.655Z,8.20
2019-02-12T02:08:06.406Z,7.60
2019-02-12T02:10:39.407Z,8.27
2019-02-12T02:13:11.576Z,8.13
2019-02-12T02:15:44.728Z,9.00
2019-02-12T02:18:16.881Z,8.40
2019-02-12T02:20:49.025Z,8.27
2019-02-12T02:23:22.136Z,8.73
2019-02-12T02:25:54.611Z,8.37
2019-02-12T02:28:26.990Z,8.67
2019-02-12T02:31:00.956Z,7.93
2019-02-12T02:33:33.366Z,8.47
2019-02-12T02:36:05.590Z,9.57
2019-02-12T02:38:38.031Z,7.37
2019-02-12T02:41:10.417Z,7.90
2019-02-12T02:43:42.897Z,7.60
2019-02-12T02:46:16.026Z,6.87
2019-02-12T02:48:48.930Z,6.97
2019-02-12T02:51:22.736Z,6.43
2019-02-12T02:53:55.348Z,9.60
2019-02-12T02:56:33.617Z,8.97
2019-02-12T02:59:06.421Z,9.43
2019-02-12T03:01:39.324Z,11.53
2019-02-12T03:04:12.563Z,10.30
2019-02-12T03:06:44.873Z,11.77
2019-02-12T03:09:17.216Z,11.13
2019-02-12T03:11:49.994Z,11.07
2019-02-12T03:14:23.284Z,9.93
2019-02-12T03:16:55.786Z,10.77
2019-02-12T03:19:28.268Z,9.77
2019-02-12T03:22:03.656Z,8.50
2019-02-12T03:24:36.301Z,9.80
2019-02-12T03:27:08.751Z,8.90
2019-02-12T03:29:41.456Z,8.43
2019-02-12T03:32:13.701Z,6.97
2019-02-12T03:34:46.624Z,6.80
2019-02-12T03:37:19.499Z,6.87
2019-02-12T03:39:54.425Z,7.33
2019-02-12T03:42:27.630Z,7.00
2019-02-12T03:45:00.619Z,7.33
2019-02-12T03:47:35.288Z,7.77
2019-02-12T03:50:08.074Z,6.93
2019-02-12T03:52:41.283Z,7.77
2019-02-12T03:55:14.444Z,9.10
2019-02-12T03:57:47.053Z,8.87
2019-02-12T04:00:19.604Z,8.40
2019-02-12T04:03:17.395Z,7.93
2019-02-12T04:05:49.639Z,8.40
2019-02-12T04:08:24.262Z,7.67
2019-02-12T04:10:57.091Z,8.80
2019-02-12T04:13:30.189Z,8.70
2019-02-12T04:16:02.465Z,8.37
2019-02-12T04:18:35.690Z,9.20
2019-02-12T04:21:09.135Z,9.40
2019-02-12T04:23:41.909Z,9.10
2019-02-12T04:26:14.452Z,8.93
2019-02-12T04:28:48.536Z,8.77
2019-02-12T04:31:20.666Z,9.30
2019-02-12T04:33:52.370Z,9.50
2019-02-12T04:36:24.856Z,10.13
2019-02-12T04:38:58.753Z,9.90
2019-02-12T04:41:31.139Z,10.70
2019-02-12T04:44:03.919Z,10.07
2019-02-12T04:46:36.336Z,10.20
2019-02-12T04:49:09.518Z,10.20
2019-02-12T04:51:44.531Z,11.63
2019-02-12T04:54:18.773Z,11.30
2019-02-12T04:57:00.879Z,11.43
2019-02-12T04:59:34.534Z,12.70
2019-02-12T05:02:09.516Z,13.83
2019-02-12T06:09:48.815Z,19.03
2019-02-12T06:12:21.674Z,18.07
2019-02-12T06:14:54.694Z,18.20
2019-02-12T06:17:29.046Z,18.70
2019-02-12T06:20:02.638Z,19.40
2019-02-12T06:22:36.782Z,20.27
2019-02-12T06:25:11.062Z,20.83
2019-02-12T06:27:47.907Z,19.63
2019-02-12T06:30:22.600Z,21.70
2019-02-12T06:32:56.570Z,20.77
2019-02-12T06:35:32.043Z,17.60
2019-02-12T06:38:06.171Z,17.40
2019-02-12T06:40:40.445Z,17.00
2019-02-12T06:43:14.375Z,21.27
2019-02-12T06:45:49.660Z,17.90
2019-02-12T06:48:24.214Z,19.07
2019-02-12T06:50:56.360Z,19.37
2019-02-12T06:53:28.745Z,19.10
2019-02-12T06:56:02.313Z,20.50
2019-02-12T06:58:38.690Z,20.00
2019-02-12T07:01:11.053Z,21.37
2019-02-12T07:03:53.835Z,19.73
2019-02-12T07:07:21.579Z,19.70
2019-02-12T07:10:00.780Z,20.33
2019-02-12T07:13:17.844Z,22.13
2019-02-12T07:16:12.109Z,21.80
2019-02-12T07:19:13.808Z,20.20
2019-02-12T07:22:06.210Z,21.50
2019-02-12T07:25:36.774Z,21.17
2019-02-12T07:28:50.746Z,21.73
2019-02-12T07:32:05.232Z,20.50
2019-02-12T07:35:17.048Z,19.00
2019-02-12T07:38:46.583Z,18.90
2019-02-12T07:42:02.279Z,18.27
2019-02-12T07:44:45.922Z,17.13
2019-02-12T07:47:44.574Z,17.57
2019-02-12T07:51:06.190Z,16.50
2019-02-12T07:53:59.665Z,15.97
2019-02-12T07:57:21.103Z,15.67
2019-02-12T08:00:38.808Z,16.10
2019-02-12T08:03:39.407Z,14.60
2019-02-12T08:07:01.349Z,16.17
2019-02-12T08:10:18.396Z,16.90
2019-02-12T08:13:21.817Z,16.33
2019-02-12T08:16:47.274Z,15.47
2019-02-12T08:20:03.165Z,15.90
2019-02-12T08:23:25.998Z,15.73
2019-02-12T08:26:15.894Z,15.33
2019-02-12T08:29:23.348Z,14.17
2019-02-12T08:32:40.639Z,15.40
2019-02-12T08:36:21.455Z,14.77
2019-02-12T08:39:43.021Z,15.83
2019-02-12T08:42:58.561Z,17.37
2019-02-12T08:46:19.218Z,20.83
2019-02-12T08:49:56.569Z,22.93
2019-02-12T08:53:05.533Z,20.13
2019-02-12T08:56:08.614Z,17.40
2019-02-12T08:59:19.801Z,18.13
2019-02-12T09:02:16.054Z,16.90
2019-02-12T09:05:25.449Z,16.57
2019-02-12T09:08:38.317Z,16.23
2019-02-12T09:11:23.597Z,17.80
2019-02-12T09:14:27.464Z,16.77
2019-02-12T09:17:36.774Z,13.77
2019-02-12T09:20:39.968Z,14.13
2019-02-12T09:23:41.761Z,13.67
2019-02-12T09:26:48.418Z,13.07
2019-02-12T09:29:51.420Z,12.93
2019-02-12T09:32:58.104Z,13.90
2019-02-12T09:36:06.268Z,14.20
2019-02-12T09:39:00.652Z,13.23
2019-02-12T09:41:57.710Z,14.20
2019-02-12T09:45:07.146Z,14.67
2019-02-12T09:48:04.469Z,15.20
2019-02-12T09:51:22.899Z,13.97
2019-02-12T09:54:22.221Z,13.33
2019-02-12T09:57:31.052Z,13.13
2019-02-12T10:00:26.270Z,14.47
2019-02-12T10:03:21.653Z,14.00
2019-02-12T10:06:30.651Z,14.53
2019-02-12T10:09:36.675Z,14.27
2019-02-12T10:12:41.372Z,14.50
2019-02-12T10:15:33.783Z,14.37
2019-02-12T10:18:17.481Z,14.40
2019-02-12T10:21:29.684Z,14.90
2019-02-12T10:25:00.633Z,15.03
2019-02-12T10:28:37.859Z,16.23
2019-02-12T10:31:34.617Z,15.63
2019-02-12T10:34:07.196Z,16.33
2019-02-12T10:36:39.647Z,15.67
2019-02-12T10:39:14.047Z,17.87
2019-02-12T10:41:46.897Z,17.00
2019-02-12T10:44:19.679Z,17.63
2019-02-12T10:46:53.244Z,17.27
2019-02-12T10:49:25.155Z,18.10
2019-02-12T10:51:57.387Z,18.20
2019-02-12T10:54:29.791Z,17.33
2019-02-12T10:57:01.529Z,17.43
2019-02-12T10:59:36.004Z,17.10
2019-02-12T11:02:08.308Z,16.90
2019-02-12T11:04:40.598Z,17.67
2019-02-12T11:07:12.751Z,16.33
2019-02-12T11:09:44.862Z,15.77
2019-02-12T11:12:17.003Z,15.33
2019-02-12T11:14:49.733Z,15.37
2019-02-12T11:17:24.060Z,13.90
2019-02-12T11:19:56.488Z,14.10
2019-02-12T11:22:29.450Z,13.93
2019-02-12T11:25:01.995Z,13.63
2019-02-12T11:27:34.400Z,12.40
2019-02-12T11:30:07.808Z,12.47
2019-02-12T11:32:40.796Z,12.43
2019-02-12T11:35:13.318Z,11.67
2019-02-12T11:37:46.023Z,11.07
2019-02-12T11:40:18.853Z,12.07
2019-02-12T11:42:51.620Z,11.80
2019-02-12T11:45:24.363Z,12.47
2019-02-12T11:47:56.728Z,12.40
2019-02-12T11:50:29.446Z,11.97
2019-02-12T11:53:02.037Z,12.50
2019-02-12T11:55:34.553Z,12.70
2019-02-12T11:58:07.600Z,11.30
2019-02-12T12:00:53.151Z,11.07
2019-02-12T12:03:25.209Z,10.63
2019-02-12T12:05:57.542Z,11.00
2019-02-12T12:08:29.953Z,9.03
2019-02-12T12:11:02.083Z,10.20
2019-02-12T12:13:34.848Z,10.57
2019-02-12T12:16:07.100Z,9.97
2019-02-12T12:18:39.231Z,11.70
2019-02-12T12:21:11.708Z,10.17
2019-02-12T12:23:44.237Z,10.07
2019-02-12T12:26:16.437Z,10.60
2019-02-12T12:28:50.326Z,10.53
2019-02-12T12:31:22.987Z,11.00
2019-02-12T12:33:56.213Z,10.53
2019-02-12T12:36:28.437Z,10.73
2019-02-12T12:39:02.184Z,9.93
2019-02-12T12:41:35.922Z,8.97
2019-02-12T12:44:08.456Z,8.63
2019-02-12T12:46:40.747Z,8.10
2019-02-12T12:49:12.908Z,8.17
2019-02-12T12:51:45.456Z,8.57
2019-02-12T12:54:23.558Z,9.00
2019-02-12T12:56:56.037Z,9.67
2019-02-12T12:59:29.183Z,8.93
2019-02-12T13:02:01.220Z,8.83
2019-02-12T13:04:33.962Z,9.10
2019-02-12T13:07:06.349Z,9.90
2019-02-12T13:09:39.181Z,8.63
2019-02-12T13:12:11.651Z,9.27
2019-02-12T13:14:44.206Z,10.07
2019-02-12T13:17:16.428Z,9.47
2019-02-12T13:19:48.433Z,9.00
2019-02-12T13:22:21.287Z,8.53
2019-02-12T13:24:53.481Z,8.47
2019-02-12T13:27:26.803Z,8.97
2019-02-12T13:30:00.222Z,10.20
2019-02-12T13:32:32.728Z,10.17
2019-02-12T13:35:05.222Z,9.70
2019-02-12T13:37:38.110Z,9.47
2019-02-12T13:40:11.502Z,8.53
2019-02-12T13:42:44.018Z,9.27
2019-02-12T13:45:20.227Z,9.70
2019-02-12T13:47:53.531Z,11.00
2019-02-12T13:50:27.151Z,9.27
2019-02-12T13:53:00.592Z,9.87
2019-02-12T13:55:33.268Z,9.63
2019-02-12T13:58:05.885Z,10.00
2019-02-12T14:00:38.185Z,9.20
2019-02-12T14:03:12.616Z,9.33
2019-02-12T14:05:45.046Z,9.20
2019-02-12T14:08:19.177Z,8.30
2019-02-12T14:10:52.216Z,9.40
2019-02-12T14:13:24.727Z,9.70
2019-02-12T14:16:05.981Z,8.93
2019-02-12T14:18:40.105Z,9.67
2019-02-12T14:21:14.532Z,9.07
2019-02-12T14:23:48.088Z,9.13
2019-02-12T14:26:21.563Z,8.73
2019-02-12T14:28:55.676Z,8.93
2019-02-12T14:31:33.975Z,9.33
2019-02-12T14:34:06.481Z,9.57
2019-02-12T14:36:46.203Z,9.87
2019-02-12T14:39:19.943Z,9.70
2019-02-12T14:41:58.754Z,9.47
2019-02-12T14:44:32.618Z,9.07
2019-02-12T14:47:08.378Z,10.03
2019-02-12T14:49:42.713Z,10.30
2019-02-12T14:52:15.806Z,9.67
2019-02-12T14:54:48.685Z,9.53
2019-02-12T14:57:21.549Z,10.53
2019-02-12T15:00:22.312Z,9.97
2019-02-12T15:02:57.677Z,10.47
2019-02-12T15:05:32.127Z,9.87
2019-02-12T15:08:08.106Z,9.77
2019-02-12T15:10:41.507Z,9.60
2019-02-12T15:13:15.575Z,10.37
2019-02-12T15:15:50.961Z,9.23
2019-02-12T15:18:25.958Z,9.67
2019-02-12T15:20:59.698Z,9.83
2019-02-12T15:23:40.452Z,9.43
2019-02-12T15:26:18.592Z,10.07
2019-02-12T15:28:54.373Z,10.07
2019-02-12T15:31:28.143Z,9.70
2019-02-12T15:34:03.660Z,9.93
2019-02-12T15:36:38.927Z,10.40
2019-02-12T15:39:11.889Z,10.40
2019-02-12T15:41:46.280Z,11.50
2019-02-12T15:44:20.513Z,11.03
2019-02-12T15:47:17.782Z,11.27
2019-02-12T15:49:54.588Z,11.07
2019-02-12T15:52:28.478Z,11.23
2019-02-12T15:55:04.243Z,12.03
2019-02-12T15:57:43.133Z,11.40
2019-02-12T16:00:20.462Z,11.33
2019-02-12T16:02:57.866Z,11.40
2019-02-12T16:05:34.804Z,10.83
2019-02-12T16:08:09.267Z,11.70
2019-02-12T16:10:43.984Z,11.67
2019-02-12T16:13:17.185Z,11.20
2019-02-12T16:15:50.037Z,11.90
2019-02-12T16:18:24.823Z,12.43
2019-02-12T16:21:01.461Z,11.60
2019-02-12T16:23:35.229Z,11.40
2019-02-12T16:26:08.764Z,11.37
2019-02-12T16:28:45.899Z,11.40
2019-02-12T16:31:20.442Z,12.40
2019-02-12T16:33:53.041Z,12.17
2019-02-12T16:36:27.409Z,12.97
2019-02-12T16:39:02.723Z,12.63
2019-02-12T16:41:37.448Z,12.00
2019-02-12T16:44:12.911Z,11.37
2019-02-12T16:46:46.504Z,14.27
2019-02-12T16:49:23.690Z,13.30
2019-02-12T16:51:57.164Z,12.93
2019-02-12T16:54:30.825Z,12.13
2019-02-12T16:57:04.358Z,12.97
2019-02-12T16:59:37.494Z,15.03
2019-02-12T17:02:15.472Z,13.23
2019-02-12T17:04:48.266Z,12.83
2019-02-12T17:07:20.890Z,12.67
2019-02-12T17:09:55.191Z,12.83
2019-02-12T17:12:29.274Z,12.37
2019-02-12T17:15:01.514Z,13.43
2019-02-12T17:17:34.846Z,12.53
2019-02-12T17:20:09.195Z,12.30
2019-02-12T17:22:41.693Z,12.33
2019-02-12T17:25:16.469Z,12.40
2019-02-12T17:27:51.204Z,13.10
2019-02-12T17:30:24.893Z,12.80
2019-02-12T17:32:58.578Z,13.43
2019-02-12T17:35:31.448Z,12.93
2019-02-12T17:38:03.830Z,12.67
2019-02-12T17:40:36.800Z,13.07
2019-02-12T17:43:10.155Z,12.47
2019-02-12T17:45:42.891Z,12.27
2019-02-12T17:48:15.416Z,11.87
2019-02-12T17:50:48.110Z,13.03
2019-02-12T17:54:01.171Z,12.90
2019-02-12T17:56:24.764Z,11.50
2019-02-12T17:58:52.137Z,12.23
2019-02-12T18:01:29.198Z,11.57
2019-02-12T18:04:02.014Z,13.10
2019-02-12T18:06:35.483Z,11.97
2019-02-12T18:09:12.575Z,12.00
2019-02-12T18:11:49.467Z,12.90
2019-02-12T18:14:25.351Z,12.03
2019-02-12T18:17:01.431Z,13.13
2019-02-12T18:19:34.025Z,12.47
2019-02-12T18:22:07.407Z,12.80
2019-02-12T18:24:41.182Z,12.87
2019-02-12T18:27:13.955Z,13.60
2019-02-12T18:29:47.655Z,13.33
2019-02-12T18:32:20.200Z,12.87
2019-02-12T18:34:53.087Z,12.47
2019-02-12T18:37:29.221Z,12.97
2019-02-12T18:40:08.162Z,13.00
2019-02-12T18:42:41.213Z,13.00
2019-02-12T18:45:15.296Z,12.67
2019-02-12T18:47:48.633Z,14.10
2019-02-12T18:50:22.417Z,12.77
2019-02-12T18:52:55.384Z,13.33
2019-02-12T18:55:30.335Z,13.13
2019-02-12T18:58:05.095Z,13.37
2019-02-12T19:00:38.068Z,13.23
2019-02-12T19:03:13.844Z,15.50
2019-02-12T19:05:46.699Z,14.70
2019-02-12T19:08:19.444Z,14.57
2019-02-12T19:10:54.302Z,13.67
2019-02-12T19:13:30.016Z,14.33
2019-02-12T19:16:05.604Z,14.00
2019-02-12T19:18:40.400Z,14.80
2019-02-12T19:21:22.214Z,13.63
2019-02-12T19:24:04.194Z,13.20
2019-02-12T19:26:40.985Z,14.10
2019-02-12T19:29:15.896Z,13.53
2019-02-12T19:31:59.143Z,15.07
2019-02-12T19:34:29.775Z,13.83
2019-02-12T19:37:05.307Z,14.40
2019-02-12T19:39:39.953Z,14.57
2019-02-12T19:42:17.154Z,14.53
2019-02-12T19:44:53.545Z,14.57
2019-02-12T19:47:30.341Z,15.03
2019-02-12T19:50:06.047Z,15.80
2019-02-12T19:52:41.494Z,14.83
2019-02-12T19:55:18.627Z,15.30
2019-02-12T19:57:55.226Z,15.13
2019-02-12T20:00:30.320Z,14.77
2019-02-12T20:03:06.370Z,15.10
2019-02-12T20:05:41.900Z,14.60
2019-02-12T20:08:16.729Z,14.97
2019-02-12T20:10:51.214Z,15.40
2019-02-12T20:13:26.283Z,15.43
2019-02-12T20:16:00.085Z,14.90
2019-02-12T20:18:33.773Z,15.27
2019-02-12T20:21:10.933Z,15.67
2019-02-12T20:23:53.358Z,16.00
2019-02-12T20:26:30.547Z,16.13
2019-02-12T20:29:08.737Z,15.70
2019-02-12T20:31:43.846Z,15.10
2019-02-12T20:34:19.793Z,17.50
2019-02-12T20:36:56.694Z,16.13
2019-02-12T20:40:05.756Z,17.23
2019-02-12T20:42:44.623Z,16.57
2019-02-12T20:45:25.893Z,17.13
2019-02-12T20:48:11.677Z,16.30
2019-02-12T20:50:47.930Z,16.97
2019-02-12T20:53:33.896Z,15.77
2019-02-12T20:56:30.246Z,16.90
2019-02-12T20:59:32.985Z,17.00
2019-02-12T21:02:10.424Z,17.27
2019-02-12T21:04:52.651Z,16.80
2019-02-12T21:07:33.139Z,17.10
2019-02-12T21:10:21.431Z,16.63
2019-02-12T21:13:09.182Z,16.80
2019-02-12T21:15:47.938Z,16.97
2019-02-12T21:18:23.866Z,17.53
2019-02-12T21:20:59.986Z,17.07
2019-02-12T21:24:14.360Z,17.43
2019-02-12T21:26:54.595Z,18.30
2019-02-12T21:29:28.214Z,16.80
2019-02-12T21:32:59.602Z,18.13
2019-02-12T21:35:34.037Z,18.13
2019-02-12T21:38:10.392Z,16.70
2019-02-12T21:40:45.579Z,18.77
2019-02-12T21:43:20.036Z,17.03
2019-02-12T21:45:53.772Z,17.17
2019-02-12T21:48:32.251Z,17.27
2019-02-12T21:51:08.150Z,17.50
2019-02-12T21:53:55.881Z,17.60
2019-02-12T21:56:32.362Z,15.73
2019-02-12T21:59:06.976Z,17.80
2019-02-12T22:01:57.804Z,17.37
2019-02-12T22:04:32.302Z,17.07
2019-02-12T22:07:05.883Z,17.70
2019-02-12T22:09:40.193Z,17.90
2019-02-12T22:12:15.276Z,16.53
2019-02-12T22:14:49.473Z,18.13
2019-02-12T22:17:23.629Z,17.13
2019-02-12T22:19:58.184Z,17.13
2019-02-12T22:22:31.960Z,17.23
2019-02-12T22:25:12.558Z,16.83
2019-02-12T22:27:48.156Z,17.57
2019-02-12T22:30:22.637Z,17.50
2019-02-12T22:32:56.666Z,17.00
2019-02-12T22:35:31.624Z,18.20
2019-02-12T22:38:06.574Z,17.43
2019-02-12T22:40:41.056Z,17.53
2019-02-12T22:43:15.374Z,17.53
2019-02-12T22:45:49.642Z,16.90
2019-02-12T22:48:23.894Z,17.87
2019-02-12T22:50:58.020Z,17.50
2019-02-12T22:53:32.303Z,17.27
2019-02-12T22:56:06.269Z,17.57
2019-02-12T22:58:42.086Z,16.80
2019-02-12T23:01:18.360Z,16.40
2019-02-12T23:03:57.844Z,17.57
2019-02-12T23:06:32.755Z,16.63
2019-02-12T23:09:15.705Z,17.40
2019-02-12T23:11:51.710Z,16.53
2019-02-12T23:14:26.421Z,16.90
2019-02-12T23:17:00.874Z,17.57
2019-02-12T23:19:34.655Z,16.50
2019-02-12T23:22:08.818Z,17.17
2019-02-12T23:24:44.543Z,17.57
2019-02-12T23:27:19.252Z,16.63
2019-02-12T23:29:53.888Z,16.10
2019-02-12T23:32:29.140Z,16.00
2019-02-12T23:35:03.008Z,15.13
2019-02-12T23:43:31.648Z,15.83
2019-02-12T23:46:07.164Z,15.57
2019-02-12T23:48:42.635Z,16.33
2019-02-12T23:51:26.050Z,16.07
2019-02-12T23:54:01.366Z,15.17
2019-02-12T23:56:37.181Z,15.57
2019-02-12T23:59:12.350Z,15.73
